sensor_id;sensor_type;location;lat;lon;timestamp;pressure;altitude;pressure_sealevel;temperature;humidity
21706;BME280;11014;53.076;18.208;2023-11-22T00:00:04;102258.72;;;0.15;63.16
21706;BME280;11014;53.076;18.208;2023-11-22T00:02:55;102271.78;;;0.17;62.85
21706;BME280;11014;53.076;18.208;2023-11-22T00:05:24;102274.81;;;0.12;63.19
21706;BME280;11014;53.076;18.208;2023-11-22T00:07:53;102274.94;;;0.11;63.03
21706;BME280;11014;53.076;18.208;2023-11-22T00:10:22;102264.84;;;0.05;63.64
21706;BME280;11014;53.076;18.208;2023-11-22T00:12:52;102257.53;;;0.08;63.15
21706;BME280;11014;53.076;18.208;2023-11-22T00:15:20;102265.56;;;0.07;63.25
21706;BME280;11014;53.076;18.208;2023-11-22T00:17:49;102263.88;;;0.06;63.45
21706;BME280;11014;53.076;18.208;2023-11-22T00:20:18;102260.66;;;0.02;63.58
21706;BME280;11014;53.076;18.208;2023-11-22T00:22:47;102261.75;;;-0.01;63.51
21706;BME280;11014;53.076;18.208;2023-11-22T00:25:15;102261.00;;;-0.03;63.65
21706;BME280;11014;53.076;18.208;2023-11-22T00:27:44;102253.47;;;-0.07;63.61
21706;BME280;11014;53.076;18.208;2023-11-22T00:30:14;102269.31;;;-0.07;63.47
21706;BME280;11014;53.076;18.208;2023-11-22T00:32:43;102265.81;;;-0.08;63.74
21706;BME280;11014;53.076;18.208;2023-11-22T00:35:12;102265.34;;;-0.13;63.61
21706;BME280;11014;53.076;18.208;2023-11-22T00:37:43;102265.59;;;-0.16;63.73
21706;BME280;11014;53.076;18.208;2023-11-22T00:40:11;102270.88;;;-0.16;63.82
21706;BME280;11014;53.076;18.208;2023-11-22T00:42:40;102273.03;;;-0.21;63.75
21706;BME280;11014;53.076;18.208;2023-11-22T00:45:12;102279.41;;;-0.23;63.99
21706;BME280;11014;53.076;18.208;2023-11-22T00:47:41;102282.41;;;-0.28;64.19
21706;BME280;11014;53.076;18.208;2023-11-22T00:50:11;102299.91;;;-0.27;64.46
21706;BME280;11014;53.076;18.208;2023-11-22T00:52:40;102300.91;;;-0.28;64.33
21706;BME280;11014;53.076;18.208;2023-11-22T00:55:13;102308.22;;;-0.31;64.27
21706;BME280;11014;53.076;18.208;2023-11-22T00:57:42;102306.53;;;-0.32;64.79
21706;BME280;11014;53.076;18.208;2023-11-22T01:00:11;102311.22;;;-0.36;64.81
21706;BME280;11014;53.076;18.208;2023-11-22T01:02:42;102305.09;;;-0.36;64.66
21706;BME280;11014;53.076;18.208;2023-11-22T01:05:11;102303.53;;;-0.39;64.72
21706;BME280;11014;53.076;18.208;2023-11-22T01:07:40;102298.47;;;-0.42;64.82
21706;BME280;11014;53.076;18.208;2023-11-22T01:10:09;102307.50;;;-0.44;64.89
21706;BME280;11014;53.076;18.208;2023-11-22T01:12:39;102322.25;;;-0.42;64.86
21706;BME280;11014;53.076;18.208;2023-11-22T01:15:08;102314.78;;;-0.48;65.27
21706;BME280;11014;53.076;18.208;2023-11-22T01:17:37;102321.00;;;-0.49;65.21
21706;BME280;11014;53.076;18.208;2023-11-22T01:20:06;102323.91;;;-0.52;65.21
21706;BME280;11014;53.076;18.208;2023-11-22T01:22:40;102333.28;;;-0.48;65.19
21706;BME280;11014;53.076;18.208;2023-11-22T01:25:08;102319.59;;;-0.42;64.68
21706;BME280;11014;53.076;18.208;2023-11-22T01:27:37;102319.34;;;-0.50;64.70
21706;BME280;11014;53.076;18.208;2023-11-22T01:30:06;102317.31;;;-0.57;64.97
21706;BME280;11014;53.076;18.208;2023-11-22T01:32:38;102320.28;;;-0.62;65.10
21706;BME280;11014;53.076;18.208;2023-11-22T01:35:07;102327.25;;;-0.61;65.58
21706;BME280;11014;53.076;18.208;2023-11-22T01:37:36;102314.53;;;-0.56;65.21
21706;BME280;11014;53.076;18.208;2023-11-22T01:40:05;102322.19;;;-0.64;65.28
21706;BME280;11014;53.076;18.208;2023-11-22T01:42:37;102321.00;;;-0.71;65.31
21706;BME280;11014;53.076;18.208;2023-11-22T01:45:08;102324.59;;;-0.72;65.21
21706;BME280;11014;53.076;18.208;2023-11-22T01:47:38;102333.91;;;-0.79;65.46
21706;BME280;11014;53.076;18.208;2023-11-22T01:50:08;102327.41;;;-0.86;65.44
21706;BME280;11014;53.076;18.208;2023-11-22T01:52:39;102321.53;;;-0.90;65.26
21706;BME280;11014;53.076;18.208;2023-11-22T01:55:09;102329.34;;;-0.88;65.69
21706;BME280;11014;53.076;18.208;2023-11-22T01:57:38;102338.41;;;-0.92;65.46
21706;BME280;11014;53.076;18.208;2023-11-22T02:00:07;102354.69;;;-0.98;65.37
21706;BME280;11014;53.076;18.208;2023-11-22T02:02:42;102355.75;;;-1.01;65.69
21706;BME280;11014;53.076;18.208;2023-11-22T02:05:11;102357.81;;;-1.04;65.42
21706;BME280;11014;53.076;18.208;2023-11-22T02:07:41;102362.34;;;-1.06;65.78
21706;BME280;11014;53.076;18.208;2023-11-22T02:10:11;102365.94;;;-1.07;66.21
21706;BME280;11014;53.076;18.208;2023-11-22T02:12:40;102366.88;;;-1.08;66.03
21706;BME280;11014;53.076;18.208;2023-11-22T02:15:09;102369.03;;;-1.13;65.92
21706;BME280;11014;53.076;18.208;2023-11-22T02:17:38;102373.81;;;-1.18;65.69
21706;BME280;11014;53.076;18.208;2023-11-22T02:20:08;102382.28;;;-1.39;65.98
21706;BME280;11014;53.076;18.208;2023-11-22T02:22:44;102380.06;;;-1.68;66.79
21706;BME280;11014;53.076;18.208;2023-11-22T02:25:12;102379.78;;;-1.89;67.48
21706;BME280;11014;53.076;18.208;2023-11-22T02:27:41;102379.72;;;-1.28;nan
21706;BME280;11014;53.076;18.208;2023-11-22T02:30:11;102375.50;;;-1.17;nan
21706;BME280;11014;53.076;18.208;2023-11-22T02:32:40;102379.69;;;-1.15;nan
21706;BME280;11014;53.076;18.208;2023-11-22T02:35:08;102392.03;;;-1.15;nan
21706;BME280;11014;53.076;18.208;2023-11-22T02:37:38;102394.69;;;-1.15;nan
21706;BME280;11014;53.076;18.208;2023-11-22T02:40:16;102392.75;;;-1.13;nan
21706;BME280;11014;53.076;18.208;2023-11-22T02:42:51;102393.19;;;-1.20;nan
21706;BME280;11014;53.076;18.208;2023-11-22T02:45:29;102392.59;;;-1.23;nan
21706;BME280;11014;53.076;18.208;2023-11-22T02:47:58;102398.19;;;-1.28;nan
21706;BME280;11014;53.076;18.208;2023-11-22T02:50:27;102407.16;;;-1.30;nan
21706;BME280;11014;53.076;18.208;2023-11-22T02:52:56;102415.19;;;-1.32;nan
21706;BME280;11014;53.076;18.208;2023-11-22T02:55:24;102425.75;;;-1.32;nan
21706;BME280;11014;53.076;18.208;2023-11-22T02:57:53;102416.97;;;-1.32;nan
21706;BME280;11014;53.076;18.208;2023-11-22T03:00:21;102418.03;;;-1.35;nan
21706;BME280;11014;53.076;18.208;2023-11-22T03:02:51;102434.81;;;-1.36;nan
21706;BME280;11014;53.076;18.208;2023-11-22T03:05:22;102436.75;;;-1.14;nan
21706;BME280;11014;53.076;18.208;2023-11-22T03:07:52;102440.38;;;-1.28;nan
21706;BME280;11014;53.076;18.208;2023-11-22T03:10:21;102441.34;;;-1.29;nan
21706;BME280;11014;53.076;18.208;2023-11-22T03:12:49;102444.56;;;-1.25;nan
21706;BME280;11014;53.076;18.208;2023-11-22T03:15:18;102449.75;;;-1.24;nan
21706;BME280;11014;53.076;18.208;2023-11-22T03:17:47;102457.13;;;-1.16;nan
21706;BME280;11014;53.076;18.208;2023-11-22T03:20:17;102445.28;;;-1.10;nan
21706;BME280;11014;53.076;18.208;2023-11-22T03:22:45;102451.19;;;-1.07;nan
21706;BME280;11014;53.076;18.208;2023-11-22T03:25:14;102443.88;;;-1.03;nan
21706;BME280;11014;53.076;18.208;2023-11-22T03:27:42;102435.97;;;-1.03;nan
21706;BME280;11014;53.076;18.208;2023-11-22T03:30:13;102435.97;;;-1.03;nan
21706;BME280;11014;53.076;18.208;2023-11-22T03:32:44;102429.25;;;-1.07;nan
21706;BME280;11014;53.076;18.208;2023-11-22T03:35:12;102440.84;;;-1.10;nan
21706;BME280;11014;53.076;18.208;2023-11-22T03:37:42;102444.56;;;-1.12;nan
21706;BME280;11014;53.076;18.208;2023-11-22T03:40:10;102443.00;;;-1.15;nan
21706;BME280;11014;53.076;18.208;2023-11-22T03:42:40;102439.81;;;-1.20;nan
21706;BME280;11014;53.076;18.208;2023-11-22T03:45:09;102443.63;;;-1.24;nan
21706;BME280;11014;53.076;18.208;2023-11-22T03:47:38;102444.78;;;-1.28;nan
21706;BME280;11014;53.076;18.208;2023-11-22T03:50:07;102437.09;;;-1.31;nan
21706;BME280;11014;53.076;18.208;2023-11-22T03:52:36;102440.06;;;-1.36;nan
21706;BME280;11014;53.076;18.208;2023-11-22T03:55:06;102446.41;;;-1.38;nan
21706;BME280;11014;53.076;18.208;2023-11-22T03:57:35;102447.25;;;-1.38;nan
21706;BME280;11014;53.076;18.208;2023-11-22T04:00:04;102438.84;;;-1.43;nan
21706;BME280;11014;53.076;18.208;2023-11-22T04:02:39;102446.22;;;-1.48;nan
21706;BME280;11014;53.076;18.208;2023-11-22T04:05:10;102440.22;;;-1.50;nan
21706;BME280;11014;53.076;18.208;2023-11-22T04:07:41;102443.06;;;-1.53;nan
21706;BME280;11014;53.076;18.208;2023-11-22T04:10:10;102438.25;;;-1.59;nan
21706;BME280;11014;53.076;18.208;2023-11-22T04:12:39;102436.97;;;-1.66;nan
21706;BME280;11014;53.076;18.208;2023-11-22T04:15:08;102442.66;;;-1.72;nan
21706;BME280;11014;53.076;18.208;2023-11-22T04:17:40;102463.22;;;-1.77;nan
21706;BME280;11014;53.076;18.208;2023-11-22T04:20:10;102471.31;;;-1.80;nan
21706;BME280;11014;53.076;18.208;2023-11-22T04:22:41;102482.84;;;-1.81;nan
21706;BME280;11014;53.076;18.208;2023-11-22T04:25:13;102496.28;;;-1.86;nan
21706;BME280;11014;53.076;18.208;2023-11-22T04:27:42;102495.56;;;-1.88;nan
21706;BME280;11014;53.076;18.208;2023-11-22T04:30:11;102488.91;;;-1.93;nan
21706;BME280;11014;53.076;18.208;2023-11-22T04:32:43;102486.50;;;-1.96;nan
21706;BME280;11014;53.076;18.208;2023-11-22T04:35:13;102492.19;;;-2.02;nan
21706;BME280;11014;53.076;18.208;2023-11-22T04:37:42;102494.28;;;-2.07;nan
21706;BME280;11014;53.076;18.208;2023-11-22T04:40:11;102504.19;;;-2.11;nan
21706;BME280;11014;53.076;18.208;2023-11-22T04:42:40;102508.81;;;-2.14;nan
21706;BME280;11014;53.076;18.208;2023-11-22T04:45:09;102503.75;;;-2.17;nan
21706;BME280;11014;53.076;18.208;2023-11-22T04:47:38;102502.06;;;-2.18;nan
21706;BME280;11014;53.076;18.208;2023-11-22T04:50:08;102502.28;;;-2.21;nan
21706;BME280;11014;53.076;18.208;2023-11-22T04:52:47;102514.47;;;-2.20;nan
21706;BME280;11014;53.076;18.208;2023-11-22T04:55:16;102516.06;;;-2.18;nan
21706;BME280;11014;53.076;18.208;2023-11-22T04:57:46;102510.91;;;-2.19;nan
21706;BME280;11014;53.076;18.208;2023-11-22T05:00:15;102516.19;;;-2.19;nan
21706;BME280;11014;53.076;18.208;2023-11-22T05:02:46;102516.38;;;-2.22;nan
21706;BME280;11014;53.076;18.208;2023-11-22T05:05:14;102522.50;;;-2.22;nan
21706;BME280;11014;53.076;18.208;2023-11-22T05:07:46;102533.38;;;-2.01;nan
21706;BME280;11014;53.076;18.208;2023-11-22T05:10:15;102548.38;;;-2.16;nan
21706;BME280;11014;53.076;18.208;2023-11-22T05:12:45;102538.19;;;-2.20;nan
21706;BME280;11014;53.076;18.208;2023-11-22T05:15:14;102538.38;;;-2.23;nan
21706;BME280;11014;53.076;18.208;2023-11-22T05:17:43;102554.38;;;-2.26;nan
21706;BME280;11014;53.076;18.208;2023-11-22T05:20:11;102557.31;;;-2.31;nan
21706;BME280;11014;53.076;18.208;2023-11-22T05:22:40;102562.69;;;-2.32;nan
21706;BME280;11014;53.076;18.208;2023-11-22T05:25:09;102556.56;;;-2.33;nan
21706;BME280;11014;53.076;18.208;2023-11-22T05:27:38;102564.34;;;-2.31;nan
21706;BME280;11014;53.076;18.208;2023-11-22T05:30:07;102567.72;;;-2.29;nan
21706;BME280;11014;53.076;18.208;2023-11-22T05:32:36;102572.59;;;-2.23;nan
21706;BME280;11014;53.076;18.208;2023-11-22T05:35:04;102578.31;;;-2.17;nan
21706;BME280;11014;53.076;18.208;2023-11-22T05:37:38;102580.44;;;-2.09;nan
21706;BME280;11014;53.076;18.208;2023-11-22T05:40:07;102576.47;;;-2.02;nan
21706;BME280;11014;53.076;18.208;2023-11-22T05:42:38;102573.41;;;-1.96;nan
21706;BME280;11014;53.076;18.208;2023-11-22T05:45:07;102568.66;;;-1.91;nan
21706;BME280;11014;53.076;18.208;2023-11-22T05:47:37;102575.44;;;-1.87;nan
21706;BME280;11014;53.076;18.208;2023-11-22T05:50:07;102568.47;;;-1.88;nan
21706;BME280;11014;53.076;18.208;2023-11-22T05:52:36;102565.09;;;-1.90;nan
21706;BME280;11014;53.076;18.208;2023-11-22T05:55:05;102574.91;;;-1.92;nan
21706;BME280;11014;53.076;18.208;2023-11-22T05:57:34;102573.19;;;-1.93;nan
21706;BME280;11014;53.076;18.208;2023-11-22T06:00:03;102568.91;;;-1.94;nan
21706;BME280;11014;53.076;18.208;2023-11-22T06:02:32;102575.84;;;-1.93;nan
21706;BME280;11014;53.076;18.208;2023-11-22T06:05:00;102580.69;;;-1.87;nan
21706;BME280;11014;53.076;18.208;2023-11-22T06:07:29;102586.31;;;-1.79;nan
21706;BME280;11014;53.076;18.208;2023-11-22T06:09:57;102587.69;;;-1.73;nan
21706;BME280;11014;53.076;18.208;2023-11-22T06:12:26;102584.72;;;-1.69;nan
21706;BME280;11014;53.076;18.208;2023-11-22T06:14:55;102596.03;;;-1.67;nan
21706;BME280;11014;53.076;18.208;2023-11-22T06:17:23;102590.03;;;-1.56;nan
21706;BME280;11014;53.076;18.208;2023-11-22T06:19:52;102590.22;;;-1.47;nan
21706;BME280;11014;53.076;18.208;2023-11-22T06:22:21;102600.56;;;-1.44;nan
21706;BME280;11014;53.076;18.208;2023-11-22T06:24:49;102591.31;;;-1.37;nan
21706;BME280;11014;53.076;18.208;2023-11-22T06:27:18;102594.25;;;-1.29;nan
21706;BME280;11014;53.076;18.208;2023-11-22T06:29:47;102608.56;;;-1.20;nan
21706;BME280;11014;53.076;18.208;2023-11-22T06:32:15;102622.06;;;-1.12;nan
21706;BME280;11014;53.076;18.208;2023-11-22T06:34:44;102627.78;;;-1.05;nan
21706;BME280;11014;53.076;18.208;2023-11-22T06:37:12;102626.50;;;-1.00;nan
21706;BME280;11014;53.076;18.208;2023-11-22T06:39:40;102626.28;;;-0.97;nan
21706;BME280;11014;53.076;18.208;2023-11-22T06:42:11;102623.97;;;-0.89;nan
21706;BME280;11014;53.076;18.208;2023-11-22T06:44:41;102614.03;;;-0.85;nan
21706;BME280;11014;53.076;18.208;2023-11-22T06:47:10;102612.13;;;-0.83;nan
21706;BME280;11014;53.076;18.208;2023-11-22T06:49:39;102618.13;;;-0.81;nan
21706;BME280;11014;53.076;18.208;2023-11-22T06:52:08;102618.66;;;-0.76;nan
21706;BME280;11014;53.076;18.208;2023-11-22T06:54:37;102621.84;;;-0.71;nan
21706;BME280;11014;53.076;18.208;2023-11-22T06:57:05;102630.69;;;-0.72;nan
21706;BME280;11014;53.076;18.208;2023-11-22T06:59:34;102635.25;;;-0.74;nan
21706;BME280;11014;53.076;18.208;2023-11-22T07:02:03;102644.09;;;-0.75;nan
21706;BME280;11014;53.076;18.208;2023-11-22T07:04:31;102649.50;;;-0.77;nan
21706;BME280;11014;53.076;18.208;2023-11-22T07:07:00;102660.25;;;-0.80;nan
21706;BME280;11014;53.076;18.208;2023-11-22T07:09:30;102659.41;;;-0.80;nan
21706;BME280;11014;53.076;18.208;2023-11-22T07:11:59;102656.56;;;-0.77;nan
21706;BME280;11014;53.076;18.208;2023-11-22T07:14:27;102670.50;;;-0.75;nan
21706;BME280;11014;53.076;18.208;2023-11-22T07:16:57;102669.53;;;-0.74;nan
21706;BME280;11014;53.076;18.208;2023-11-22T07:19:26;102671.00;;;-0.70;nan
21706;BME280;11014;53.076;18.208;2023-11-22T07:21:55;102676.28;;;-0.70;nan
21706;BME280;11014;53.076;18.208;2023-11-22T07:24:23;102677.97;;;-0.69;nan
21706;BME280;11014;53.076;18.208;2023-11-22T07:26:52;102689.38;;;-0.69;nan
21706;BME280;11014;53.076;18.208;2023-11-22T07:29:21;102683.47;;;-0.72;nan
21706;BME280;11014;53.076;18.208;2023-11-22T07:31:51;102679.97;;;-0.73;nan
21706;BME280;11014;53.076;18.208;2023-11-22T07:34:20;102685.38;;;-0.74;nan
21706;BME280;11014;53.076;18.208;2023-11-22T07:36:48;102690.88;;;-0.77;nan
21706;BME280;11014;53.076;18.208;2023-11-22T07:39:20;102694.66;;;-0.81;nan
21706;BME280;11014;53.076;18.208;2023-11-22T07:41:49;102699.94;;;-0.81;nan
21706;BME280;11014;53.076;18.208;2023-11-22T07:44:19;102711.34;;;-0.81;nan
21706;BME280;11014;53.076;18.208;2023-11-22T07:46:48;102704.34;;;-0.82;nan
21706;BME280;11014;53.076;18.208;2023-11-22T07:49:17;102708.81;;;-0.82;nan
21706;BME280;11014;53.076;18.208;2023-11-22T07:51:46;102707.13;;;-0.83;nan
21706;BME280;11014;53.076;18.208;2023-11-22T07:54:14;102708.56;;;-0.79;nan
21706;BME280;11014;53.076;18.208;2023-11-22T07:56:44;102711.78;;;-0.74;nan
21706;BME280;11014;53.076;18.208;2023-11-22T07:59:12;102727.41;;;-0.71;nan
21706;BME280;11014;53.076;18.208;2023-11-22T08:01:45;102747.00;;;-0.63;nan
21706;BME280;11014;53.076;18.208;2023-11-22T08:04:16;102741.31;;;-0.56;nan
21706;BME280;11014;53.076;18.208;2023-11-22T08:06:47;102717.00;;;-0.49;nan
21706;BME280;11014;53.076;18.208;2023-11-22T08:09:16;102714.66;;;-0.41;nan
21706;BME280;11014;53.076;18.208;2023-11-22T08:11:45;102703.66;;;-0.35;nan
21706;BME280;11014;53.076;18.208;2023-11-22T08:14:13;102696.03;;;-0.27;nan
21706;BME280;11014;53.076;18.208;2023-11-22T08:16:42;102678.91;;;-0.21;nan
21706;BME280;11014;53.076;18.208;2023-11-22T08:19:11;102674.03;;;-0.15;nan
21706;BME280;11014;53.076;18.208;2023-11-22T08:21:40;102668.31;;;-0.09;nan
21706;BME280;11014;53.076;18.208;2023-11-22T08:24:10;102674.97;;;-0.03;nan
21706;BME280;11014;53.076;18.208;2023-11-22T08:26:41;102686.75;;;0.04;nan
21706;BME280;11014;53.076;18.208;2023-11-22T08:29:10;102684.75;;;0.08;nan
21706;BME280;11014;53.076;18.208;2023-11-22T08:31:40;102681.66;;;0.14;nan
21706;BME280;11014;53.076;18.208;2023-11-22T08:34:08;102678.53;;;0.20;nan
21706;BME280;11014;53.076;18.208;2023-11-22T08:36:40;102672.78;;;0.26;nan
21706;BME280;11014;53.076;18.208;2023-11-22T08:39:08;102672.34;;;0.32;nan
21706;BME280;11014;53.076;18.208;2023-11-22T08:41:36;102682.47;;;0.38;nan
21706;BME280;11014;53.076;18.208;2023-11-22T08:44:06;102677.69;;;0.43;nan
21706;BME280;11014;53.076;18.208;2023-11-22T08:46:35;102677.09;;;0.50;nan
21706;BME280;11014;53.076;18.208;2023-11-22T08:49:04;102688.06;;;0.57;nan
21706;BME280;11014;53.076;18.208;2023-11-22T08:51:32;102682.19;;;0.65;nan
21706;BME280;11014;53.076;18.208;2023-11-22T08:54:02;102686.91;;;0.72;nan
21706;BME280;11014;53.076;18.208;2023-11-22T08:56:31;102704.00;;;0.79;nan
21706;BME280;11014;53.076;18.208;2023-11-22T08:58:59;102701.84;;;0.84;nan
21706;BME280;11014;53.076;18.208;2023-11-22T09:01:28;102696.06;;;0.90;nan
21706;BME280;11014;53.076;18.208;2023-11-22T09:03:57;102695.59;;;0.96;nan
21706;BME280;11014;53.076;18.208;2023-11-22T09:06:26;102696.00;;;1.03;nan
21706;BME280;11014;53.076;18.208;2023-11-22T09:08:58;102697.19;;;1.10;nan
21706;BME280;11014;53.076;18.208;2023-11-22T09:11:36;102688.91;;;1.14;nan
21706;BME280;11014;53.076;18.208;2023-11-22T09:14:05;102688.41;;;1.20;nan
21706;BME280;11014;53.076;18.208;2023-11-22T09:16:37;102687.69;;;1.30;nan
21706;BME280;11014;53.076;18.208;2023-11-22T09:19:07;102693.47;;;1.35;nan
21706;BME280;11014;53.076;18.208;2023-11-22T09:21:36;102676.97;;;1.42;nan
21706;BME280;11014;53.076;18.208;2023-11-22T09:24:04;102678.19;;;1.49;nan
21706;BME280;11014;53.076;18.208;2023-11-22T09:26:35;102688.16;;;1.57;nan
21706;BME280;11014;53.076;18.208;2023-11-22T09:29:03;102690.34;;;1.63;nan
21706;BME280;11014;53.076;18.208;2023-11-22T09:31:35;102674.78;;;1.69;nan
21706;BME280;11014;53.076;18.208;2023-11-22T09:34:03;102676.22;;;1.73;nan
21706;BME280;11014;53.076;18.208;2023-11-22T09:36:32;102680.19;;;1.79;nan
21706;BME280;11014;53.076;18.208;2023-11-22T09:39:02;102679.72;;;1.85;nan
21706;BME280;11014;53.076;18.208;2023-11-22T09:41:31;102677.78;;;1.87;nan
21706;BME280;11014;53.076;18.208;2023-11-22T09:43:59;102682.19;;;1.98;nan
21706;BME280;11014;53.076;18.208;2023-11-22T09:46:28;102676.28;;;2.05;nan
21706;BME280;11014;53.076;18.208;2023-11-22T09:49:24;102674.78;;;2.23;nan
21706;BME280;11014;53.076;18.208;2023-11-22T09:51:54;102683.69;;;2.22;nan
21706;BME280;11014;53.076;18.208;2023-11-22T09:54:24;102686.56;;;2.30;nan
21706;BME280;11014;53.076;18.208;2023-11-22T09:57:18;102682.66;;;2.46;nan
21706;BME280;11014;53.076;18.208;2023-11-22T09:59:56;102675.94;;;2.62;nan
21706;BME280;11014;53.076;18.208;2023-11-22T10:02:26;102684.13;;;2.80;nan
21706;BME280;11014;53.076;18.208;2023-11-22T10:08:17;102673.13;;;3.05;nan
21706;BME280;11014;53.076;18.208;2023-11-22T10:14:31;102677.19;;;3.09;nan
21706;BME280;11014;53.076;18.208;2023-11-22T10:17:01;102679.31;;;3.15;nan
21706;BME280;11014;53.076;18.208;2023-11-22T10:19:31;102679.06;;;3.18;nan
21706;BME280;11014;53.076;18.208;2023-11-22T10:22:06;102674.50;;;3.30;nan
21706;BME280;11014;53.076;18.208;2023-11-22T10:24:36;102674.94;;;3.35;nan
21706;BME280;11014;53.076;18.208;2023-11-22T10:27:04;102677.69;;;3.24;nan
21706;BME280;11014;53.076;18.208;2023-11-22T10:29:34;102677.72;;;3.33;nan
21706;BME280;11014;53.076;18.208;2023-11-22T10:32:04;102684.09;;;3.51;nan
21706;BME280;11014;53.076;18.208;2023-11-22T10:34:51;102676.50;;;3.87;nan
21706;BME280;11014;53.076;18.208;2023-11-22T10:37:46;102668.00;;;4.12;nan
21706;BME280;11014;53.076;18.208;2023-11-22T10:40:15;102661.00;;;4.11;nan
21706;BME280;11014;53.076;18.208;2023-11-22T10:42:47;102659.44;;;4.08;nan
21706;BME280;11014;53.076;18.208;2023-11-22T10:45:17;102655.25;;;4.06;nan
21706;BME280;11014;53.076;18.208;2023-11-22T10:47:46;102655.81;;;4.00;nan
21706;BME280;11014;53.076;18.208;2023-11-22T10:50:15;102644.31;;;3.90;nan
21706;BME280;11014;53.076;18.208;2023-11-22T10:52:44;102639.00;;;3.90;nan
21706;BME280;11014;53.076;18.208;2023-11-22T10:55:42;102644.47;;;3.98;nan
21706;BME280;11014;53.076;18.208;2023-11-22T10:58:16;102643.50;;;3.99;nan
21706;BME280;11014;53.076;18.208;2023-11-22T11:00:46;102652.44;;;4.07;nan
21706;BME280;11014;53.076;18.208;2023-11-22T11:03:32;102645.59;;;4.24;nan
21706;BME280;11014;53.076;18.208;2023-11-22T11:06:11;102637.59;;;4.43;nan
21706;BME280;11014;53.076;18.208;2023-11-22T11:08:43;102649.34;;;4.69;nan
21706;BME280;11014;53.076;18.208;2023-11-22T11:11:12;102646.75;;;4.97;nan
21706;BME280;11014;53.076;18.208;2023-11-22T11:13:43;102635.88;;;5.27;nan
21706;BME280;11014;53.076;18.208;2023-11-22T11:16:12;102634.13;;;5.90;nan
21706;BME280;11014;53.076;18.208;2023-11-22T11:18:41;102627.06;;;7.11;nan
21706;BME280;11014;53.076;18.208;2023-11-22T11:21:10;102623.84;;;7.91;nan
21706;BME280;11014;53.076;18.208;2023-11-22T11:23:41;102616.16;;;7.96;nan
21706;BME280;11014;53.076;18.208;2023-11-22T11:26:18;102616.66;;;7.84;nan
21706;BME280;11014;53.076;18.208;2023-11-22T11:28:51;102625.75;;;7.57;nan
21706;BME280;11014;53.076;18.208;2023-11-22T11:31:21;102640.16;;;7.64;nan
21706;BME280;11014;53.076;18.208;2023-11-22T11:33:55;102641.34;;;7.28;nan
21706;BME280;11014;53.076;18.208;2023-11-22T11:36:31;102641.41;;;7.02;nan
21706;BME280;11014;53.076;18.208;2023-11-22T11:39:02;102636.66;;;6.70;nan
21706;BME280;11014;53.076;18.208;2023-11-22T11:41:32;102639.56;;;6.59;nan
21706;BME280;11014;53.076;18.208;2023-11-22T11:44:02;102641.28;;;6.60;nan
21706;BME280;11014;53.076;18.208;2023-11-22T11:46:36;102639.44;;;6.61;nan
21706;BME280;11014;53.076;18.208;2023-11-22T11:49:12;102649.66;;;6.65;nan
21706;BME280;11014;53.076;18.208;2023-11-22T11:51:42;102633.25;;;6.60;nan
21706;BME280;11014;53.076;18.208;2023-11-22T11:54:12;102633.19;;;6.52;nan
21706;BME280;11014;53.076;18.208;2023-11-22T11:56:45;102628.91;;;6.59;nan
21706;BME280;11014;53.076;18.208;2023-11-22T11:59:14;102627.59;;;6.63;nan
21706;BME280;11014;53.076;18.208;2023-11-22T12:01:43;102622.09;;;6.65;nan
21706;BME280;11014;53.076;18.208;2023-11-22T12:04:11;102630.09;;;6.65;nan
21706;BME280;11014;53.076;18.208;2023-11-22T12:06:40;102620.09;;;6.67;nan
21706;BME280;11014;53.076;18.208;2023-11-22T12:09:09;102625.66;;;6.73;nan
21706;BME280;11014;53.076;18.208;2023-11-22T12:11:38;102606.91;;;6.65;nan
21706;BME280;11014;53.076;18.208;2023-11-22T12:14:07;102608.19;;;6.79;nan
21706;BME280;11014;53.076;18.208;2023-11-22T12:16:37;102603.81;;;7.37;nan
21706;BME280;11014;53.076;18.208;2023-11-22T12:19:06;102601.16;;;8.19;nan
21706;BME280;11014;53.076;18.208;2023-11-22T12:21:35;102592.50;;;9.43;nan
21706;BME280;11014;53.076;18.208;2023-11-22T12:24:04;102578.00;;;10.14;nan
21706;BME280;11014;53.076;18.208;2023-11-22T12:26:35;102577.03;;;10.96;nan
21706;BME280;11014;53.076;18.208;2023-11-22T12:29:05;102577.28;;;11.16;nan
21706;BME280;11014;53.076;18.208;2023-11-22T12:31:44;102580.94;;;10.79;nan
21706;BME280;11014;53.076;18.208;2023-11-22T12:34:17;102594.41;;;10.19;nan
21706;BME280;11014;53.076;18.208;2023-11-22T12:36:47;102575.75;;;9.95;nan
21706;BME280;11014;53.076;18.208;2023-11-22T12:39:15;102580.84;;;9.28;nan
21706;BME280;11014;53.076;18.208;2023-11-22T12:41:48;102570.97;;;8.82;nan
21706;BME280;11014;53.076;18.208;2023-11-22T12:44:50;102561.47;;;8.39;nan
21706;BME280;11014;53.076;18.208;2023-11-22T12:47:34;102564.31;;;7.81;nan
21706;BME280;11014;53.076;18.208;2023-11-22T12:50:06;102572.75;;;7.44;nan
21706;BME280;11014;53.076;18.208;2023-11-22T12:52:38;102569.53;;;7.33;nan
21706;BME280;11014;53.076;18.208;2023-11-22T12:55:08;102581.63;;;7.11;nan
21706;BME280;11014;53.076;18.208;2023-11-22T12:57:36;102584.47;;;7.09;nan
21706;BME280;11014;53.076;18.208;2023-11-22T13:00:06;102580.13;;;7.08;nan
21706;BME280;11014;53.076;18.208;2023-11-22T13:02:35;102591.81;;;7.07;nan
21706;BME280;11014;53.076;18.208;2023-11-22T13:05:17;102585.28;;;7.02;nan
21706;BME280;11014;53.076;18.208;2023-11-22T13:07:48;102571.50;;;6.89;nan
21706;BME280;11014;53.076;18.208;2023-11-22T13:10:18;102553.09;;;6.86;nan
21706;BME280;11014;53.076;18.208;2023-11-22T13:12:47;102545.94;;;6.86;nan
21706;BME280;11014;53.076;18.208;2023-11-22T13:15:15;102539.59;;;6.87;nan
21706;BME280;11014;53.076;18.208;2023-11-22T13:17:45;102541.25;;;6.80;nan
21706;BME280;11014;53.076;18.208;2023-11-22T13:20:13;102537.16;;;6.68;nan
21706;BME280;11014;53.076;18.208;2023-11-22T13:22:42;102538.84;;;6.69;nan